Santa Teresa — D5AH6 — position and weather

sailwx.info

Track history (hours):
 
Tides and Currents Weather Stations Pressure Air Temp Water Temp Dewpoint Dewpoint Depression Visibility Wind Speed Wind Dir Waves Ship Positions

Santa Teresa

Last reported at 2016-May-04 00:00 UTC. Time now 2016-May-05 14:13 UTC.
Position N 47°30' E 171°06'.

Length 300 m; draft 11.7 m.

Type: Ship (hazmat cat A). MMSI: 636092317.

Wind from 320 at 18 knots

Waves 2.0 meters (7 feet), 7 second period

Barometer 1017.5 mb
Air temperature 14.6 ° C
Visibility: greater than 10.8 NM
Dewpoint 1.8 ° C
Water temperature 1.0 ° C

Date/timePositionNaut miles runAvg speedWind from/ knotsBaromVisibWave heightAir tempDewpointWater temp
2016-May-04 00:00N 47°30' E 171°06'37915.8 320 / 181017.510.8 2.014.6 1.8 1.0
2016-May-03 00:00N 46°24' E 162°00'56015.6 270 / 161017.6 5.4 1.013.4-0.3 1.0
2016-May-01 12:00N 43°36' E 149°24'19216.0 310 / 201014.4 5.4 3.0 2.2-0.6-1.0
2016-May-01 00:00N 42°18' E 145°24'   300 / 141013.510.8 1.0 5.4-2.2-1.0
2016-Apr-26 14:10N 30°37' E 122°56'915.2
2016-Apr-26 13:33N 30°35' E 122°45'2015.2
2016-Apr-26 12:15N 30°32' E 122°23'911.5
2016-Apr-26 11:31N 30°33' E 122°13'7 0.6
2016-Apr-25 23:32N 30°36' E 122°05'0 0.0
2016-Apr-25 22:32N 30°36' E 122°05'0 0.0
2016-Apr-25 21:26N 30°36' E 122°05'0 0.0
2016-Apr-25 20:26N 30°36' E 122°05'0 0.0
2016-Apr-25 19:11N 30°36' E 122°05'0 0.0
2016-Apr-25 18:32N 30°36' E 122°05'0 0.0
2016-Apr-25 16:32N 30°36' E 122°05'0 0.0
2016-Apr-25 11:20N 30°36' E 122°05'0 0.0
2016-Apr-25 07:33N 30°36' E 122°05'10 9.9
2016-Apr-25 06:33N 30°33' E 122°16'23 4.4
2016-Apr-25 01:19N 30°28' E 122°42'8 9.3
2016-Apr-25 00:28N 30°24' E 122°50'40 5.8
2016-Apr-24 17:30N 29°46' E 122°35'1010.6
2016-Apr-24 16:33N 29°44' E 122°23'10 9.6
2016-Apr-24 15:32N 29°49' E 122°13'1111.2
2016-Apr-24 14:32N 29°46' E 122°01'1 0.6
2016-Apr-24 13:30N 29°46' E 122°00'  
Track history (hours):
 
Tides and Currents Weather Stations Pressure Air Temp Water Temp Dewpoint Dewpoint Depression Visibility Wind Speed Wind Dir Waves Ship Positions

Santa Teresa

Last reported at 2016-May-04 00:00 UTC. Time now 2016-May-05 14:13 UTC.
Position N 47°30' E 171°06'.

Length 300 m; draft 11.7 m.

Type: Ship (hazmat cat A). MMSI: 636092317.

Wind from 320 at 18 knots

Waves 2.0 meters (7 feet), 7 second period

Barometer 1017.5 mb
Air temperature 14.6 ° C
Visibility: greater than 10.8 NM
Dewpoint 1.8 ° C
Water temperature 1.0 ° C

Date/timePositionNaut miles runAvg speedWind from/ knotsBaromVisibWave heightAir tempDewpointWater temp
2016-May-04 00:00N 47°30' E 171°06'37915.8 320 / 181017.510.8 2.014.6 1.8 1.0
2016-May-03 00:00N 46°24' E 162°00'56015.6 270 / 161017.6 5.4 1.013.4-0.3 1.0
2016-May-01 12:00N 43°36' E 149°24'19216.0 310 / 201014.4 5.4 3.0 2.2-0.6-1.0
2016-May-01 00:00N 42°18' E 145°24'   300 / 141013.510.8 1.0 5.4-2.2-1.0
2016-Apr-26 14:10N 30°37' E 122°56'915.2
2016-Apr-26 13:33N 30°35' E 122°45'2015.2
2016-Apr-26 12:15N 30°32' E 122°23'911.5
2016-Apr-26 11:31N 30°33' E 122°13'7 0.6
2016-Apr-25 23:32N 30°36' E 122°05'0 0.0
2016-Apr-25 22:32N 30°36' E 122°05'0 0.0
2016-Apr-25 21:26N 30°36' E 122°05'0 0.0
2016-Apr-25 20:26N 30°36' E 122°05'0 0.0
2016-Apr-25 19:11N 30°36' E 122°05'0 0.0
2016-Apr-25 18:32N 30°36' E 122°05'0 0.0
2016-Apr-25 16:32N 30°36' E 122°05'0 0.0
2016-Apr-25 11:20N 30°36' E 122°05'0 0.0
2016-Apr-25 07:33N 30°36' E 122°05'10 9.9
2016-Apr-25 06:33N 30°33' E 122°16'23 4.4
2016-Apr-25 01:19N 30°28' E 122°42'8 9.3
2016-Apr-25 00:28N 30°24' E 122°50'40 5.8
2016-Apr-24 17:30N 29°46' E 122°35'1010.6
2016-Apr-24 16:33N 29°44' E 122°23'10 9.6
2016-Apr-24 15:32N 29°49' E 122°13'1111.2
2016-Apr-24 14:32N 29°46' E 122°01'1 0.6
2016-Apr-24 13:30N 29°46' E 122°00'  

Dump ship's entire track history